Terminal Aerodrome Forecast
Issued by NWS Sterling, VA

Current Version | Previous Version | Text Only | Print | Product List | Glossary Off
Versions: 1 2 3 4 5 6 7 8 9 10 11 12 13 14 15 16 17 18 19

281
FTUS41 KLWX 281134
TAFMRB
TAF
KMRB 281134Z 2812/2912 09006KT 3SM -SHRA BR OVC008
     FM281900 08008KT P6SM OVC010
     FM290000 10006KT 5SM -SHRA OVC010
     FM290300 09005KT 3SM BR OVC008
     FM290600 07004KT 3SM -DZ BR OVC008=

USA.gov is the U.S. government's official web portal to all federal, state and local government web resources and services.